sensor_id;sensor_type;location;lat;lon;timestamp;temperature;humidity
20284;DHT22;10301;50.832;4.080;2022-07-29T00:01:49;20.40;99.90
20284;DHT22;10301;50.832;4.080;2022-07-29T00:04:15;20.20;99.90
20284;DHT22;10301;50.832;4.080;2022-07-29T00:06:41;20.20;99.90
20284;DHT22;10301;50.832;4.080;2022-07-29T00:09:06;20.10;99.90
20284;DHT22;10301;50.832;4.080;2022-07-29T00:11:32;20.10;99.90
20284;DHT22;10301;50.832;4.080;2022-07-29T00:13:58;20.20;99.90
20284;DHT22;10301;50.832;4.080;2022-07-29T00:16:23;20.20;99.90
20284;DHT22;10301;50.832;4.080;2022-07-29T00:18:49;20.20;99.90
20284;DHT22;10301;50.832;4.080;2022-07-29T00:21:15;20.20;99.90
20284;DHT22;10301;50.832;4.080;2022-07-29T00:23:41;20.20;99.90
20284;DHT22;10301;50.832;4.080;2022-07-29T00:26:07;20.20;99.90
20284;DHT22;10301;50.832;4.080;2022-07-29T00:28:33;20.00;99.90
20284;DHT22;10301;50.832;4.080;2022-07-29T00:30:59;20.00;99.90
20284;DHT22;10301;50.832;4.080;2022-07-29T00:33:24;20.10;99.90
20284;DHT22;10301;50.832;4.080;2022-07-29T00:35:50;20.20;99.90
20284;DHT22;10301;50.832;4.080;2022-07-29T00:38:20;20.30;99.90
20284;DHT22;10301;50.832;4.080;2022-07-29T00:40:46;20.30;99.90
20284;DHT22;10301;50.832;4.080;2022-07-29T00:43:13;20.20;99.90
20284;DHT22;10301;50.832;4.080;2022-07-29T00:45:41;20.20;99.90
20284;DHT22;10301;50.832;4.080;2022-07-29T00:48:06;20.30;99.90
20284;DHT22;10301;50.832;4.080;2022-07-29T00:50:34;20.30;99.90
20284;DHT22;10301;50.832;4.080;2022-07-29T00:53:00;20.40;99.90
20284;DHT22;10301;50.832;4.080;2022-07-29T00:55:26;20.40;99.90
20284;DHT22;10301;50.832;4.080;2022-07-29T00:57:52;20.20;99.90
20284;DHT22;10301;50.832;4.080;2022-07-29T01:00:24;19.70;99.90
20284;DHT22;10301;50.832;4.080;2022-07-29T01:02:51;19.30;99.90
20284;DHT22;10301;50.832;4.080;2022-07-29T01:05:18;19.20;99.90
20284;DHT22;10301;50.832;4.080;2022-07-29T01:07:46;19.30;99.90
20284;DHT22;10301;50.832;4.080;2022-07-29T01:10:13;19.40;99.90
20284;DHT22;10301;50.832;4.080;2022-07-29T01:12:40;19.10;99.90
20284;DHT22;10301;50.832;4.080;2022-07-29T01:15:07;19.10;99.90
20284;DHT22;10301;50.832;4.080;2022-07-29T01:29:26;19.10;99.90
20284;DHT22;10301;50.832;4.080;2022-07-29T01:32:15;19.10;99.90
20284;DHT22;10301;50.832;4.080;2022-07-29T01:34:58;19.00;99.90
20284;DHT22;10301;50.832;4.080;2022-07-29T01:39:57;18.90;99.90
20284;DHT22;10301;50.832;4.080;2022-07-29T01:45:08;18.80;99.90
20284;DHT22;10301;50.832;4.080;2022-07-29T01:47:44;18.70;99.90
20284;DHT22;10301;50.832;4.080;2022-07-29T01:50:15;18.50;99.90
20284;DHT22;10301;50.832;4.080;2022-07-29T01:52:56;18.40;99.90
20284;DHT22;10301;50.832;4.080;2022-07-29T01:55:31;18.30;99.90
20284;DHT22;10301;50.832;4.080;2022-07-29T01:57:58;18.10;99.90
20284;DHT22;10301;50.832;4.080;2022-07-29T02:00:25;17.90;99.90
20284;DHT22;10301;50.832;4.080;2022-07-29T02:02:53;17.90;99.90
20284;DHT22;10301;50.832;4.080;2022-07-29T02:05:21;17.70;99.90
20284;DHT22;10301;50.832;4.080;2022-07-29T02:07:50;17.90;99.90
20284;DHT22;10301;50.832;4.080;2022-07-29T02:10:20;17.80;99.90
20284;DHT22;10301;50.832;4.080;2022-07-29T02:12:48;17.70;99.90
20284;DHT22;10301;50.832;4.080;2022-07-29T02:15:14;17.70;99.90
20284;DHT22;10301;50.832;4.080;2022-07-29T02:17:45;17.90;99.90
20284;DHT22;10301;50.832;4.080;2022-07-29T02:20:12;17.80;99.90
20284;DHT22;10301;50.832;4.080;2022-07-29T02:22:39;17.80;99.90
20284;DHT22;10301;50.832;4.080;2022-07-29T02:25:08;17.80;99.90
20284;DHT22;10301;50.832;4.080;2022-07-29T02:27:34;18.00;99.90
20284;DHT22;10301;50.832;4.080;2022-07-29T02:30:05;18.20;99.90
20284;DHT22;10301;50.832;4.080;2022-07-29T02:32:37;18.00;99.90
20284;DHT22;10301;50.832;4.080;2022-07-29T02:35:05;17.70;99.90
20284;DHT22;10301;50.832;4.080;2022-07-29T02:37:32;17.70;99.90
20284;DHT22;10301;50.832;4.080;2022-07-29T02:39:59;17.50;99.90
20284;DHT22;10301;50.832;4.080;2022-07-29T02:42:26;17.40;99.90
20284;DHT22;10301;50.832;4.080;2022-07-29T02:44:52;17.30;99.90
20284;DHT22;10301;50.832;4.080;2022-07-29T02:47:31;17.60;99.90
20284;DHT22;10301;50.832;4.080;2022-07-29T02:50:14;17.80;99.90
20284;DHT22;10301;50.832;4.080;2022-07-29T02:52:47;17.90;99.90
20284;DHT22;10301;50.832;4.080;2022-07-29T02:57:54;17.90;99.90
20284;DHT22;10301;50.832;4.080;2022-07-29T03:00:27;17.80;99.90
20284;DHT22;10301;50.832;4.080;2022-07-29T03:02:56;17.90;99.90
20284;DHT22;10301;50.832;4.080;2022-07-29T03:05:24;17.70;99.90
20284;DHT22;10301;50.832;4.080;2022-07-29T03:08:04;17.50;99.90
20284;DHT22;10301;50.832;4.080;2022-07-29T03:10:31;17.30;99.90
20284;DHT22;10301;50.832;4.080;2022-07-29T03:12:58;17.30;99.90
20284;DHT22;10301;50.832;4.080;2022-07-29T03:15:24;17.40;99.90
20284;DHT22;10301;50.832;4.080;2022-07-29T03:17:51;17.60;99.90
20284;DHT22;10301;50.832;4.080;2022-07-29T03:20:18;17.70;99.90
20284;DHT22;10301;50.832;4.080;2022-07-29T03:22:44;17.70;99.90
20284;DHT22;10301;50.832;4.080;2022-07-29T03:25:17;17.80;99.90
20284;DHT22;10301;50.832;4.080;2022-07-29T03:27:43;17.70;99.90
20284;DHT22;10301;50.832;4.080;2022-07-29T03:30:10;17.60;99.90
20284;DHT22;10301;50.832;4.080;2022-07-29T03:32:36;17.50;99.90
20284;DHT22;10301;50.832;4.080;2022-07-29T03:35:04;17.60;99.90
20284;DHT22;10301;50.832;4.080;2022-07-29T03:37:30;17.50;99.90
20284;DHT22;10301;50.832;4.080;2022-07-29T03:39:57;17.40;99.90
20284;DHT22;10301;50.832;4.080;2022-07-29T03:42:30;17.00;99.90
20284;DHT22;10301;50.832;4.080;2022-07-29T03:44:57;16.90;99.90
20284;DHT22;10301;50.832;4.080;2022-07-29T03:47:26;16.90;99.90
20284;DHT22;10301;50.832;4.080;2022-07-29T03:49:59;16.90;99.90
20284;DHT22;10301;50.832;4.080;2022-07-29T03:52:25;17.00;99.90
20284;DHT22;10301;50.832;4.080;2022-07-29T03:54:51;16.80;99.90
20284;DHT22;10301;50.832;4.080;2022-07-29T03:57:19;16.80;99.90
20284;DHT22;10301;50.832;4.080;2022-07-29T03:59:46;16.50;99.90
20284;DHT22;10301;50.832;4.080;2022-07-29T04:02:13;16.40;99.90
20284;DHT22;10301;50.832;4.080;2022-07-29T04:04:39;16.40;99.90
20284;DHT22;10301;50.832;4.080;2022-07-29T04:07:05;16.60;99.90
20284;DHT22;10301;50.832;4.080;2022-07-29T04:09:31;16.60;99.90
20284;DHT22;10301;50.832;4.080;2022-07-29T04:11:56;16.50;99.90
20284;DHT22;10301;50.832;4.080;2022-07-29T04:14:22;16.40;99.90
20284;DHT22;10301;50.832;4.080;2022-07-29T04:16:48;16.40;99.90
20284;DHT22;10301;50.832;4.080;2022-07-29T04:19:13;16.50;99.90
20284;DHT22;10301;50.832;4.080;2022-07-29T04:21:40;16.50;99.90
20284;DHT22;10301;50.832;4.080;2022-07-29T04:24:07;16.40;99.90
20284;DHT22;10301;50.832;4.080;2022-07-29T04:26:33;16.40;99.90
20284;DHT22;10301;50.832;4.080;2022-07-29T04:28:59;16.40;99.90
20284;DHT22;10301;50.832;4.080;2022-07-29T04:31:25;16.50;99.90
20284;DHT22;10301;50.832;4.080;2022-07-29T04:33:50;16.60;99.90
20284;DHT22;10301;50.832;4.080;2022-07-29T04:36:16;16.90;99.90
20284;DHT22;10301;50.832;4.080;2022-07-29T04:38:42;16.80;99.90
20284;DHT22;10301;50.832;4.080;2022-07-29T04:41:07;16.80;99.90
20284;DHT22;10301;50.832;4.080;2022-07-29T04:43:34;16.80;99.90
20284;DHT22;10301;50.832;4.080;2022-07-29T04:46:00;16.90;99.90
20284;DHT22;10301;50.832;4.080;2022-07-29T04:48:26;17.00;99.90
20284;DHT22;10301;50.832;4.080;2022-07-29T04:50:52;17.10;99.90
20284;DHT22;10301;50.832;4.080;2022-07-29T04:53:17;17.20;99.90
20284;DHT22;10301;50.832;4.080;2022-07-29T04:55:44;17.20;99.90
20284;DHT22;10301;50.832;4.080;2022-07-29T04:58:10;17.40;99.90
20284;DHT22;10301;50.832;4.080;2022-07-29T05:00:36;17.50;99.90
20284;DHT22;10301;50.832;4.080;2022-07-29T05:03:02;17.50;99.90
20284;DHT22;10301;50.832;4.080;2022-07-29T05:05:27;17.40;99.90
20284;DHT22;10301;50.832;4.080;2022-07-29T05:07:53;17.50;99.90
20284;DHT22;10301;50.832;4.080;2022-07-29T05:10:19;17.40;99.90
20284;DHT22;10301;50.832;4.080;2022-07-29T05:12:45;17.50;99.90
20284;DHT22;10301;50.832;4.080;2022-07-29T05:15:10;17.60;99.90
20284;DHT22;10301;50.832;4.080;2022-07-29T05:17:36;17.70;99.90
20284;DHT22;10301;50.832;4.080;2022-07-29T05:20:03;17.70;99.90
20284;DHT22;10301;50.832;4.080;2022-07-29T05:22:29;17.60;99.90
20284;DHT22;10301;50.832;4.080;2022-07-29T05:24:54;17.60;99.90
20284;DHT22;10301;50.832;4.080;2022-07-29T05:27:20;17.70;99.90
20284;DHT22;10301;50.832;4.080;2022-07-29T05:29:45;17.80;99.90
20284;DHT22;10301;50.832;4.080;2022-07-29T05:32:12;17.80;99.90
20284;DHT22;10301;50.832;4.080;2022-07-29T05:34:38;17.70;99.90
20284;DHT22;10301;50.832;4.080;2022-07-29T05:37:04;17.80;99.90
20284;DHT22;10301;50.832;4.080;2022-07-29T05:39:29;18.00;99.90
20284;DHT22;10301;50.832;4.080;2022-07-29T05:41:55;18.10;99.90
20284;DHT22;10301;50.832;4.080;2022-07-29T05:44:20;18.20;99.90
20284;DHT22;10301;50.832;4.080;2022-07-29T05:46:46;18.20;99.90
20284;DHT22;10301;50.832;4.080;2022-07-29T05:49:12;18.30;99.90
20284;DHT22;10301;50.832;4.080;2022-07-29T05:51:37;18.40;99.90
20284;DHT22;10301;50.832;4.080;2022-07-29T05:54:03;18.60;99.90
20284;DHT22;10301;50.832;4.080;2022-07-29T05:56:29;18.50;99.90
20284;DHT22;10301;50.832;4.080;2022-07-29T05:58:54;18.60;99.90
20284;DHT22;10301;50.832;4.080;2022-07-29T06:01:20;18.80;99.90
20284;DHT22;10301;50.832;4.080;2022-07-29T06:03:46;18.90;99.90
20284;DHT22;10301;50.832;4.080;2022-07-29T06:06:12;18.90;99.90
20284;DHT22;10301;50.832;4.080;2022-07-29T06:08:38;18.90;99.90
20284;DHT22;10301;50.832;4.080;2022-07-29T06:11:04;18.80;99.90
20284;DHT22;10301;50.832;4.080;2022-07-29T06:13:30;18.80;99.90
20284;DHT22;10301;50.832;4.080;2022-07-29T06:15:56;18.90;99.90
20284;DHT22;10301;50.832;4.080;2022-07-29T06:18:22;19.00;99.90
20284;DHT22;10301;50.832;4.080;2022-07-29T06:20:50;18.70;99.90
20284;DHT22;10301;50.832;4.080;2022-07-29T06:23:16;19.20;99.90
20284;DHT22;10301;50.832;4.080;2022-07-29T06:25:42;19.20;99.90
20284;DHT22;10301;50.832;4.080;2022-07-29T06:28:08;19.20;99.90
20284;DHT22;10301;50.832;4.080;2022-07-29T06:30:34;19.50;99.90
20284;DHT22;10301;50.832;4.080;2022-07-29T06:32:59;19.80;99.90
20284;DHT22;10301;50.832;4.080;2022-07-29T06:35:27;20.10;99.90
20284;DHT22;10301;50.832;4.080;2022-07-29T06:37:53;20.10;99.90
20284;DHT22;10301;50.832;4.080;2022-07-29T06:40:18;20.20;99.90
20284;DHT22;10301;50.832;4.080;2022-07-29T06:43:02;20.00;99.90
20284;DHT22;10301;50.832;4.080;2022-07-29T06:45:28;20.00;99.90
20284;DHT22;10301;50.832;4.080;2022-07-29T06:47:54;20.40;99.90
20284;DHT22;10301;50.832;4.080;2022-07-29T06:50:19;20.70;99.90
20284;DHT22;10301;50.832;4.080;2022-07-29T06:52:47;20.80;99.90
20284;DHT22;10301;50.832;4.080;2022-07-29T06:55:12;20.50;99.90
20284;DHT22;10301;50.832;4.080;2022-07-29T06:57:39;20.50;99.90
20284;DHT22;10301;50.832;4.080;2022-07-29T07:00:05;20.60;99.90
20284;DHT22;10301;50.832;4.080;2022-07-29T07:02:31;20.80;99.90
20284;DHT22;10301;50.832;4.080;2022-07-29T07:04:57;20.80;99.90
20284;DHT22;10301;50.832;4.080;2022-07-29T07:07:24;20.70;99.90
20284;DHT22;10301;50.832;4.080;2022-07-29T07:09:49;20.80;99.90
20284;DHT22;10301;50.832;4.080;2022-07-29T07:12:15;20.40;99.90
20284;DHT22;10301;50.832;4.080;2022-07-29T07:14:41;20.60;99.90
20284;DHT22;10301;50.832;4.080;2022-07-29T07:17:07;20.40;99.90
20284;DHT22;10301;50.832;4.080;2022-07-29T07:19:33;20.40;99.90
20284;DHT22;10301;50.832;4.080;2022-07-29T07:21:58;20.20;99.90
20284;DHT22;10301;50.832;4.080;2022-07-29T07:24:24;20.20;99.90
20284;DHT22;10301;50.832;4.080;2022-07-29T07:26:50;20.30;99.90
20284;DHT22;10301;50.832;4.080;2022-07-29T07:29:16;20.50;99.90
20284;DHT22;10301;50.832;4.080;2022-07-29T07:31:42;20.80;99.90
20284;DHT22;10301;50.832;4.080;2022-07-29T07:34:11;20.80;99.90
20284;DHT22;10301;50.832;4.080;2022-07-29T07:36:37;20.80;99.90
20284;DHT22;10301;50.832;4.080;2022-07-29T07:39:02;20.50;99.90
20284;DHT22;10301;50.832;4.080;2022-07-29T07:41:30;20.20;99.90
20284;DHT22;10301;50.832;4.080;2022-07-29T07:43:55;20.20;99.90
20284;DHT22;10301;50.832;4.080;2022-07-29T07:46:21;20.60;99.90
20284;DHT22;10301;50.832;4.080;2022-07-29T07:48:47;21.00;99.90
20284;DHT22;10301;50.832;4.080;2022-07-29T07:51:12;21.40;99.90
20284;DHT22;10301;50.832;4.080;2022-07-29T07:53:38;21.70;99.90
20284;DHT22;10301;50.832;4.080;2022-07-29T07:56:04;21.80;99.90
20284;DHT22;10301;50.832;4.080;2022-07-29T07:58:31;21.80;99.90
20284;DHT22;10301;50.832;4.080;2022-07-29T08:00:57;21.60;99.90
20284;DHT22;10301;50.832;4.080;2022-07-29T08:03:23;21.30;99.90
20284;DHT22;10301;50.832;4.080;2022-07-29T08:05:48;21.10;99.90
20284;DHT22;10301;50.832;4.080;2022-07-29T08:08:17;21.00;99.90
20284;DHT22;10301;50.832;4.080;2022-07-29T08:10:43;21.30;99.90
20284;DHT22;10301;50.832;4.080;2022-07-29T08:13:19;21.50;99.90
20284;DHT22;10301;50.832;4.080;2022-07-29T08:15:45;21.80;99.90
20284;DHT22;10301;50.832;4.080;2022-07-29T08:18:15;21.90;99.90
20284;DHT22;10301;50.832;4.080;2022-07-29T08:20:40;22.00;99.90
20284;DHT22;10301;50.832;4.080;2022-07-29T08:23:07;21.90;99.90
20284;DHT22;10301;50.832;4.080;2022-07-29T08:25:35;22.00;99.90
20284;DHT22;10301;50.832;4.080;2022-07-29T08:28:01;22.00;99.90
20284;DHT22;10301;50.832;4.080;2022-07-29T08:30:27;22.00;99.90
20284;DHT22;10301;50.832;4.080;2022-07-29T08:32:52;22.10;99.90
20284;DHT22;10301;50.832;4.080;2022-07-29T08:35:22;22.10;99.90
20284;DHT22;10301;50.832;4.080;2022-07-29T08:37:48;22.10;99.90
20284;DHT22;10301;50.832;4.080;2022-07-29T08:40:14;22.20;99.90
20284;DHT22;10301;50.832;4.080;2022-07-29T08:42:40;22.00;99.90
20284;DHT22;10301;50.832;4.080;2022-07-29T08:45:06;22.10;99.90
20284;DHT22;10301;50.832;4.080;2022-07-29T08:47:33;22.30;99.90
20284;DHT22;10301;50.832;4.080;2022-07-29T08:49:59;22.50;99.90
20284;DHT22;10301;50.832;4.080;2022-07-29T08:52:26;22.60;99.90
20284;DHT22;10301;50.832;4.080;2022-07-29T08:54:52;22.60;99.90
20284;DHT22;10301;50.832;4.080;2022-07-29T08:57:19;22.20;99.90
20284;DHT22;10301;50.832;4.080;2022-07-29T08:59:46;22.20;99.90
20284;DHT22;10301;50.832;4.080;2022-07-29T09:02:22;22.40;99.90
20284;DHT22;10301;50.832;4.080;2022-07-29T09:04:48;22.40;99.90
20284;DHT22;10301;50.832;4.080;2022-07-29T09:07:16;22.70;99.90
20284;DHT22;10301;50.832;4.080;2022-07-29T09:09:43;22.80;99.90
20284;DHT22;10301;50.832;4.080;2022-07-29T09:12:09;22.90;99.90
20284;DHT22;10301;50.832;4.080;2022-07-29T09:14:37;22.90;99.90
20284;DHT22;10301;50.832;4.080;2022-07-29T09:17:03;22.70;99.90
20284;DHT22;10301;50.832;4.080;2022-07-29T09:19:32;22.50;99.90
20284;DHT22;10301;50.832;4.080;2022-07-29T09:22:01;22.70;99.90
20284;DHT22;10301;50.832;4.080;2022-07-29T09:24:43;22.90;99.90
20284;DHT22;10301;50.832;4.080;2022-07-29T09:30:09;23.20;99.90
20284;DHT22;10301;50.832;4.080;2022-07-29T09:32:56;23.40;99.90
20284;DHT22;10301;50.832;4.080;2022-07-29T09:35:24;23.30;99.90
20284;DHT22;10301;50.832;4.080;2022-07-29T09:37:51;23.10;99.90
20284;DHT22;10301;50.832;4.080;2022-07-29T09:40:27;23.10;99.90
20284;DHT22;10301;50.832;4.080;2022-07-29T09:42:54;23.30;99.90
20284;DHT22;10301;50.832;4.080;2022-07-29T09:45:41;23.70;99.90
20284;DHT22;10301;50.832;4.080;2022-07-29T09:48:18;23.60;99.90
20284;DHT22;10301;50.832;4.080;2022-07-29T09:50:45;23.50;99.90
20284;DHT22;10301;50.832;4.080;2022-07-29T09:53:12;23.60;99.90
20284;DHT22;10301;50.832;4.080;2022-07-29T09:55:54;23.60;99.90
20284;DHT22;10301;50.832;4.080;2022-07-29T09:58:21;23.70;99.90
20284;DHT22;10301;50.832;4.080;2022-07-29T10:00:49;23.90;99.90
20284;DHT22;10301;50.832;4.080;2022-07-29T10:03:16;23.90;99.90
20284;DHT22;10301;50.832;4.080;2022-07-29T10:05:43;23.90;99.90
20284;DHT22;10301;50.832;4.080;2022-07-29T10:08:10;23.70;99.90
20284;DHT22;10301;50.832;4.080;2022-07-29T10:10:37;23.90;99.90
20284;DHT22;10301;50.832;4.080;2022-07-29T10:13:09;23.70;99.90
20284;DHT22;10301;50.832;4.080;2022-07-29T10:15:37;24.00;99.90
20284;DHT22;10301;50.832;4.080;2022-07-29T10:18:05;24.30;99.90
20284;DHT22;10301;50.832;4.080;2022-07-29T10:20:31;24.30;99.90
20284;DHT22;10301;50.832;4.080;2022-07-29T10:22:57;24.30;99.90
20284;DHT22;10301;50.832;4.080;2022-07-29T10:25:23;24.30;99.90
20284;DHT22;10301;50.832;4.080;2022-07-29T10:27:49;24.40;99.90
20284;DHT22;10301;50.832;4.080;2022-07-29T10:30:17;24.70;99.90
20284;DHT22;10301;50.832;4.080;2022-07-29T10:43:32;24.50;99.90
20284;DHT22;10301;50.832;4.080;2022-07-29T10:46:02;24.60;99.90
20284;DHT22;10301;50.832;4.080;2022-07-29T10:48:28;24.80;99.90
20284;DHT22;10301;50.832;4.080;2022-07-29T10:51:02;24.80;99.90
20284;DHT22;10301;50.832;4.080;2022-07-29T10:53:49;25.00;99.90
20284;DHT22;10301;50.832;4.080;2022-07-29T10:56:28;25.00;99.90
20284;DHT22;10301;50.832;4.080;2022-07-29T10:59:31;25.00;99.90
20284;DHT22;10301;50.832;4.080;2022-07-29T11:01:57;25.40;99.90
20284;DHT22;10301;50.832;4.080;2022-07-29T11:07:11;25.40;99.90
20284;DHT22;10301;50.832;4.080;2022-07-29T11:09:38;25.50;99.90
20284;DHT22;10301;50.832;4.080;2022-07-29T11:12:49;25.70;99.90
20284;DHT22;10301;50.832;4.080;2022-07-29T11:14:59;25.50;99.90
20284;DHT22;10301;50.832;4.080;2022-07-29T11:17:28;25.50;99.90
20284;DHT22;10301;50.832;4.080;2022-07-29T11:22:57;26.00;99.90
20284;DHT22;10301;50.832;4.080;2022-07-29T11:25:24;25.80;99.90
20284;DHT22;10301;50.832;4.080;2022-07-29T11:27:50;25.90;99.90
20284;DHT22;10301;50.832;4.080;2022-07-29T11:30:17;25.80;99.90
20284;DHT22;10301;50.832;4.080;2022-07-29T11:32:44;25.90;99.90
20284;DHT22;10301;50.832;4.080;2022-07-29T11:35:18;26.10;99.90
20284;DHT22;10301;50.832;4.080;2022-07-29T11:37:47;25.80;99.90
20284;DHT22;10301;50.832;4.080;2022-07-29T11:40:32;26.20;99.90
20284;DHT22;10301;50.832;4.080;2022-07-29T11:42:58;26.40;99.90
20284;DHT22;10301;50.832;4.080;2022-07-29T11:45:25;26.60;99.90
20284;DHT22;10301;50.832;4.080;2022-07-29T11:47:56;26.80;99.90
20284;DHT22;10301;50.832;4.080;2022-07-29T11:50:33;26.70;99.70
20284;DHT22;10301;50.832;4.080;2022-07-29T11:53:00;26.90;99.10
20284;DHT22;10301;50.832;4.080;2022-07-29T11:55:26;27.40;98.70
20284;DHT22;10301;50.832;4.080;2022-07-29T11:57:58;27.30;98.70
20284;DHT22;10301;50.832;4.080;2022-07-29T12:00:30;27.40;98.60
20284;DHT22;10301;50.832;4.080;2022-07-29T12:02:57;27.50;97.90
20284;DHT22;10301;50.832;4.080;2022-07-29T12:05:33;27.90;97.30
20284;DHT22;10301;50.832;4.080;2022-07-29T12:10:38;28.10;96.90
20284;DHT22;10301;50.832;4.080;2022-07-29T12:13:04;28.30;96.70
20284;DHT22;10301;50.832;4.080;2022-07-29T12:15:30;28.30;95.80
20284;DHT22;10301;50.832;4.080;2022-07-29T12:17:56;28.50;96.40
20284;DHT22;10301;50.832;4.080;2022-07-29T12:20:27;28.70;95.70
20284;DHT22;10301;50.832;4.080;2022-07-29T12:22:53;28.60;95.10
20284;DHT22;10301;50.832;4.080;2022-07-29T12:25:21;28.50;95.10
20284;DHT22;10301;50.832;4.080;2022-07-29T12:27:47;28.50;94.70
20284;DHT22;10301;50.832;4.080;2022-07-29T12:30:15;28.60;94.80
20284;DHT22;10301;50.832;4.080;2022-07-29T12:32:43;28.40;94.20
20284;DHT22;10301;50.832;4.080;2022-07-29T12:35:18;28.00;94.60
20284;DHT22;10301;50.832;4.080;2022-07-29T12:37:45;28.10;94.30
20284;DHT22;10301;50.832;4.080;2022-07-29T12:40:15;28.20;94.60
20284;DHT22;10301;50.832;4.080;2022-07-29T12:45:30;27.90;94.50
20284;DHT22;10301;50.832;4.080;2022-07-29T12:47:56;27.40;95.30
20284;DHT22;10301;50.832;4.080;2022-07-29T12:50:22;27.60;94.30
20284;DHT22;10301;50.832;4.080;2022-07-29T12:52:48;27.50;95.30
20284;DHT22;10301;50.832;4.080;2022-07-29T12:55:14;27.40;95.70
20284;DHT22;10301;50.832;4.080;2022-07-29T12:57:50;27.80;95.20
20284;DHT22;10301;50.832;4.080;2022-07-29T13:00:22;27.80;94.80
20284;DHT22;10301;50.832;4.080;2022-07-29T13:02:56;27.90;94.40
20284;DHT22;10301;50.832;4.080;2022-07-29T13:05:22;28.00;94.70
20284;DHT22;10301;50.832;4.080;2022-07-29T13:07:48;28.20;93.50
20284;DHT22;10301;50.832;4.080;2022-07-29T13:10:18;28.30;93.60
20284;DHT22;10301;50.832;4.080;2022-07-29T13:13:10;28.50;93.00
20284;DHT22;10301;50.832;4.080;2022-07-29T13:15:45;28.80;92.20
20284;DHT22;10301;50.832;4.080;2022-07-29T13:18:31;28.80;92.30
20284;DHT22;10301;50.832;4.080;2022-07-29T13:20:58;28.50;93.20
20284;DHT22;10301;50.832;4.080;2022-07-29T13:23:35;28.50;92.40
20284;DHT22;10301;50.832;4.080;2022-07-29T13:26:08;28.20;92.40
20284;DHT22;10301;50.832;4.080;2022-07-29T13:28:35;28.20;92.30
20284;DHT22;10301;50.832;4.080;2022-07-29T13:31:01;28.60;91.80
20284;DHT22;10301;50.832;4.080;2022-07-29T13:33:27;28.90;91.80
20284;DHT22;10301;50.832;4.080;2022-07-29T13:35:52;29.00;91.30
20284;DHT22;10301;50.832;4.080;2022-07-29T13:38:18;28.70;91.20
20284;DHT22;10301;50.832;4.080;2022-07-29T13:40:46;28.20;91.30
20284;DHT22;10301;50.832;4.080;2022-07-29T13:43:12;28.00;91.50
20284;DHT22;10301;50.832;4.080;2022-07-29T13:45:38;28.00;92.00
20284;DHT22;10301;50.832;4.080;2022-07-29T13:48:06;27.70;92.30
20284;DHT22;10301;50.832;4.080;2022-07-29T13:50:32;27.60;92.40
20284;DHT22;10301;50.832;4.080;2022-07-29T13:52:58;27.40;91.70
20284;DHT22;10301;50.832;4.080;2022-07-29T13:55:30;27.10;92.20
20284;DHT22;10301;50.832;4.080;2022-07-29T13:57:55;27.10;93.20
20284;DHT22;10301;50.832;4.080;2022-07-29T14:00:21;27.60;91.40
20284;DHT22;10301;50.832;4.080;2022-07-29T14:02:49;27.80;90.90
20284;DHT22;10301;50.832;4.080;2022-07-29T14:05:14;28.00;89.30
20284;DHT22;10301;50.832;4.080;2022-07-29T14:07:40;28.10;87.90
20284;DHT22;10301;50.832;4.080;2022-07-29T14:10:06;28.10;86.70
20284;DHT22;10301;50.832;4.080;2022-07-29T14:12:32;28.30;87.40
20284;DHT22;10301;50.832;4.080;2022-07-29T14:14:58;28.40;88.00
20284;DHT22;10301;50.832;4.080;2022-07-29T14:17:24;28.60;87.10
20284;DHT22;10301;50.832;4.080;2022-07-29T14:19:49;28.80;86.50
20284;DHT22;10301;50.832;4.080;2022-07-29T14:22:15;28.80;85.80
20284;DHT22;10301;50.832;4.080;2022-07-29T14:24:41;28.90;85.60
20284;DHT22;10301;50.832;4.080;2022-07-29T14:27:07;29.10;85.00
20284;DHT22;10301;50.832;4.080;2022-07-29T14:29:33;29.20;84.10
20284;DHT22;10301;50.832;4.080;2022-07-29T14:31:59;29.20;83.90
20284;DHT22;10301;50.832;4.080;2022-07-29T14:34:25;29.30;86.00
20284;DHT22;10301;50.832;4.080;2022-07-29T14:36:50;29.20;84.80
20284;DHT22;10301;50.832;4.080;2022-07-29T14:39:16;29.10;85.30
20284;DHT22;10301;50.832;4.080;2022-07-29T14:41:42;28.90;85.70
20284;DHT22;10301;50.832;4.080;2022-07-29T14:44:08;28.70;85.80
20284;DHT22;10301;50.832;4.080;2022-07-29T14:46:34;28.60;85.50
20284;DHT22;10301;50.832;4.080;2022-07-29T14:48:59;28.70;85.10
20284;DHT22;10301;50.832;4.080;2022-07-29T14:51:25;28.40;84.50
20284;DHT22;10301;50.832;4.080;2022-07-29T14:53:51;28.20;87.10
20284;DHT22;10301;50.832;4.080;2022-07-29T14:56:16;28.20;86.40
20284;DHT22;10301;50.832;4.080;2022-07-29T14:58:43;28.40;85.50
20284;DHT22;10301;50.832;4.080;2022-07-29T15:01:08;28.50;84.20
20284;DHT22;10301;50.832;4.080;2022-07-29T15:03:34;28.60;84.50
20284;DHT22;10301;50.832;4.080;2022-07-29T15:06:00;28.30;86.20
20284;DHT22;10301;50.832;4.080;2022-07-29T15:08:25;28.40;85.40
20284;DHT22;10301;50.832;4.080;2022-07-29T15:10:53;28.30;85.60
20284;DHT22;10301;50.832;4.080;2022-07-29T15:13:19;28.30;86.80
20284;DHT22;10301;50.832;4.080;2022-07-29T15:15:44;28.30;84.80
20284;DHT22;10301;50.832;4.080;2022-07-29T15:18:10;28.30;86.10
20284;DHT22;10301;50.832;4.080;2022-07-29T15:20:36;28.60;85.10
20284;DHT22;10301;50.832;4.080;2022-07-29T15:23:02;28.70;84.70
20284;DHT22;10301;50.832;4.080;2022-07-29T15:25:28;28.80;83.70
20284;DHT22;10301;50.832;4.080;2022-07-29T15:27:54;28.60;83.60
20284;DHT22;10301;50.832;4.080;2022-07-29T15:30:19;28.70;84.60
20284;DHT22;10301;50.832;4.080;2022-07-29T15:32:45;28.60;84.10
20284;DHT22;10301;50.832;4.080;2022-07-29T15:35:11;28.60;84.90
20284;DHT22;10301;50.832;4.080;2022-07-29T15:37:38;28.40;84.40
20284;DHT22;10301;50.832;4.080;2022-07-29T15:40:05;28.20;85.40
20284;DHT22;10301;50.832;4.080;2022-07-29T15:42:31;28.10;86.00
20284;DHT22;10301;50.832;4.080;2022-07-29T15:44:56;28.00;85.90
20284;DHT22;10301;50.832;4.080;2022-07-29T15:47:22;28.00;86.50
20284;DHT22;10301;50.832;4.080;2022-07-29T15:49:48;28.00;89.10
20284;DHT22;10301;50.832;4.080;2022-07-29T15:52:16;28.00;87.60
20284;DHT22;10301;50.832;4.080;2022-07-29T15:54:43;27.70;88.30
20284;DHT22;10301;50.832;4.080;2022-07-29T15:57:12;27.40;89.50
20284;DHT22;10301;50.832;4.080;2022-07-29T15:59:38;27.50;89.10
20284;DHT22;10301;50.832;4.080;2022-07-29T16:02:04;27.60;87.90
20284;DHT22;10301;50.832;4.080;2022-07-29T16:04:30;27.80;88.10
20284;DHT22;10301;50.832;4.080;2022-07-29T16:06:56;27.70;87.60
20284;DHT22;10301;50.832;4.080;2022-07-29T16:09:22;27.50;86.90
20284;DHT22;10301;50.832;4.080;2022-07-29T16:11:48;27.70;89.30
20284;DHT22;10301;50.832;4.080;2022-07-29T16:14:17;27.90;89.20
20284;DHT22;10301;50.832;4.080;2022-07-29T16:16:43;28.00;87.80
20284;DHT22;10301;50.832;4.080;2022-07-29T16:19:09;27.90;88.50